Cleveland Hopkins International Airport Cleveland US
ICAO: KCLE
IATA: CLE
Category: Large
Scheduled Services: Yes

Elevation: 791 ft
TransAlt. 18000 ft.

Airport Communications:
APP:119.625
ATIS:127.85
CLNC DEL:125.05
DEP:118.15
GND:121.7
RDO:122.2
RAMP CON:129.17
TWR:120.9
UNICOM:122.95

KCLE Zoom In..

If you have problems with the map follow the link
https://www.worldairports.se/pages/airport.php?
ICAO=KCLE

Runways:

(A) RW 06L length 9000 ft width 150 ft
ILS 111.55 / hdg 57

(B) RW 06R length 9956 ft width 150 ft
ILS 111.90 / hdg 57

(C) RW 10 length 6018 ft width 150 ft
---- / hdg 100

(D) RW 24L length 9956 ft width 150 ft
ILS 109.90 / hdg 237

(E) RW 24R length 9000 ft width 150 ft
ILS 111.55 / hdg 237

(F) RW 28 length 6018 ft width 150 ft
ILS 110.70 / hdg 280

Location; KCLE
Day. 23 / Time. 17.51 Zulu
* Altimeter: 30.15
* Temperature: 11° c. 51.8°f.
* Wind from: 290° Speed 15 kn.
Dewpoint: 04° c.
Visibility: 10 Statute Miles.
Clouds: Scattered 2800 ft.
Clouds: Broken 3800 ft.
Clouds: Broken 4900 ft.

KCLE 231751Z 29015KT 10SM SCT028 BKN038 BKN049 11/04 A3015 RMK AO2 SLP213 T01110039 10122 20061 51015


Wind From 290°
Speed 15 kn.

 
 
jpsmedia.com for Web Design worldairports.se 2018   terms of use